Terminal Aerodrome Forecast
Issued by NWS Huntsville, AL

Home | Current Version | Previous Version | Text Only | Print | Product List | Glossary On
Versions: 1 2 3 4 5 6 7 8 9 10 11 12 13 14 15 16 17 18 19 20 21 22 23 24 25 26 27 28 29 30 31 32 33 34 35 36 37
000
FTUS44 KHUN 281720
TAFHSV
TAF
KHSV 281720Z 2818/2918 15005KT P6SM SCT015 BKN025
     FM282000 16010KT P6SM BKN040
      TEMPO 2821/2901 5SM -TSRA BR BKN040CB
     FM290100 12005KT P6SM BKN050
     FM290700 VRB03KT P6SM OVC025=

USA.gov is the U.S. government's official web portal to all federal, state and local government web resources and services.